Time;durP1;ratioP1;P1;durP2;ratioP2;P2;SDS_P1;SDS_P2;PMS_P1;PMS_P2;Temp;Humidity;BMP_temperature;BMP_pressure;BME280_temperature;BME280_humidity;BME280_pressure;Samples;Min_cycle;Max_cycle;Signal;HPM_P1;HPM_P2
2022/06/27 00:01:38;;;;;;;4.65;3.77;;;;;;;20.84;95.92;98193.37;1686503;84;28063;-87
2022/06/27 00:04:05;;;;;;;5.25;3.80;;;;;;;20.91;96.27;98185.51;1686111;84;28122;-87
2022/06/27 00:06:31;;;;;;;5.97;3.95;;;;;;;20.88;96.45;98186.70;1688331;84;28147;-82
2022/06/27 00:08:59;;;;;;;7.03;3.80;;;;;;;20.82;96.56;98190.58;1685363;84;28002;-87
2022/06/27 00:11:31;;;;;;;6.10;4.10;;;;;;;20.84;96.80;98193.37;1685473;84;28088;-88
2022/06/27 00:13:57;;;;;;;6.55;4.35;;;;;;;20.93;97.25;98204.80;1684941;83;28027;-85
2022/06/27 00:16:23;;;;;;;11.45;5.62;;;;;;;20.95;97.63;98204.09;1687576;84;28190;-83
2022/06/27 00:18:49;;;;;;;6.08;4.35;;;;;;;20.93;97.76;98198.14;1687309;83;28076;-83
2022/06/27 00:21:15;;;;;;;5.95;4.00;;;;;;;20.90;97.76;98202.47;1687214;83;28133;-83
2022/06/27 00:23:42;;;;;;;4.90;4.37;;;;;;;20.86;97.87;98195.86;1691272;84;28100;-87
2022/06/27 00:26:14;;;;;;;4.90;4.08;;;;;;;20.83;97.93;98198.39;1696680;83;28061;-87
2022/06/27 00:28:40;;;;;;;6.08;4.17;;;;;;;20.82;98.13;98191.41;1660280;86;28102;-84
2022/06/27 00:31:06;;;;;;;4.55;4.08;;;;;;;20.76;98.30;98189.45;1696645;83;28094;-83
2022/06/27 00:33:32;;;;;;;4.08;3.67;;;;;;;20.71;98.57;98186.50;1696633;84;28110;-88
2022/06/27 00:35:59;;;;;;;5.33;3.70;;;;;;;20.51;98.79;98189.80;1676678;84;28102;-84
2022/06/27 00:38:25;;;;;;;3.83;3.45;;;;;;;20.32;99.15;98186.57;1695830;84;28190;-89
2022/06/27 00:40:51;;;;;;;4.30;3.90;;;;;;;20.18;99.61;98193.10;1696670;84;28309;-89
2022/06/27 00:43:22;;;;;;;4.03;3.47;;;;;;;20.10;100.00;98195.78;1696009;84;28076;-89
2022/06/27 00:45:48;;;;;;;3.50;2.53;;;;;;;20.15;100.00;98198.75;1696695;83;35014;-88
2022/06/27 00:48:14;;;;;;;3.85;3.50;;;;;;;20.11;100.00;98198.77;1696200;84;28083;-84
2022/06/27 00:50:41;;;;;;;3.87;3.50;;;;;;;20.17;100.00;98205.56;1694111;83;28107;-84
2022/06/27 00:53:10;;;;;;;5.58;4.40;;;;;;;20.31;100.00;98202.19;1694263;84;28103;-85
2022/06/27 00:55:36;;;;;;;4.75;3.98;;;;;;;20.41;100.00;98207.28;1695058;83;28095;-85
2022/06/27 00:58:02;;;;;;;5.85;4.35;;;;;;;20.40;100.00;98206.45;1695570;84;28181;-88
2022/06/27 01:00:31;;;;;;;6.47;4.67;;;;;;;20.42;100.00;98203.13;1698258;83;28024;-88
2022/06/27 01:02:57;;;;;;;5.22;4.00;;;;;;;20.45;100.00;98206.78;1697117;84;28182;-88
2022/06/27 01:05:24;;;;;;;5.87;3.77;;;;;;;20.25;100.00;98207.33;1696093;83;28098;-84
2022/06/27 01:07:50;;;;;;;4.12;3.58;;;;;;;20.02;100.00;98204.10;1696548;84;28012;-83
2022/06/27 01:10:17;;;;;;;6.62;3.83;;;;;;;19.93;100.00;98207.80;1694754;83;28116;-84
2022/06/27 01:12:43;;;;;;;5.28;4.08;;;;;;;20.03;100.00;98200.95;1696595;83;28126;-83
2022/06/27 01:15:12;;;;;;;6.33;3.95;;;;;;;20.12;100.00;98203.92;1697069;83;28004;-88
2022/06/27 01:17:38;;;;;;;6.22;3.87;;;;;;;20.07;100.00;98198.30;1694551;83;28084;-88
2022/06/27 01:20:07;;;;;;;4.03;3.62;;;;;;;20.09;100.00;98194.13;1696085;83;28072;-88
2022/06/27 01:22:34;;;;;;;5.15;3.85;;;;;;;20.15;100.00;98192.10;1695559;83;28153;-83
2022/06/27 01:25:02;;;;;;;5.83;3.62;;;;;;;20.17;100.00;98192.27;1678381;83;28102;-84
2022/06/27 01:27:28;;;;;;;5.97;3.60;;;;;;;20.17;100.00;98190.11;1669700;85;28093;-84
2022/06/27 01:29:56;;;;;;;4.33;3.87;;;;;;;20.18;100.00;98183.30;1669118;85;28064;-84
2022/06/27 01:32:22;;;;;;;4.17;3.75;;;;;;;20.15;100.00;98183.63;1674683;83;28228;-84
2022/06/27 01:34:48;;;;;;;5.53;4.55;;;;;;;20.11;100.00;98180.17;1674529;85;28117;-84
2022/06/27 01:37:14;;;;;;;6.47;4.00;;;;;;;20.14;100.00;98185.95;1671013;85;28134;-83
2022/06/27 01:39:41;;;;;;;4.78;3.90;;;;;;;20.16;100.00;98185.30;1668226;85;28245;-84
2022/06/27 01:42:07;;;;;;;4.35;3.60;;;;;;;19.99;100.00;98189.02;1672211;83;28121;-83
2022/06/27 01:44:34;;;;;;;5.17;3.30;;;;;;;19.64;100.00;98195.10;1669830;85;28079;-88
2022/06/27 01:47:04;;;;;;;6.33;4.42;;;;;;;19.28;100.00;98192.49;1670769;85;28171;-84
2022/06/27 01:49:32;;;;;;;4.60;3.98;;;;;;;19.11;100.00;98191.67;1671904;85;28087;-83
2022/06/27 01:52:01;;;;;;;3.83;3.42;;;;;;;19.07;100.00;98194.84;1670556;85;28138;-83
2022/06/27 01:54:27;;;;;;;5.10;3.60;;;;;;;19.04;100.00;98199.12;1667470;85;28109;-83
2022/06/27 01:56:54;;;;;;;6.17;4.03;;;;;;;18.98;100.00;98201.14;1668770;83;28097;-83
2022/06/27 01:59:27;;;;;;;5.40;4.08;;;;;;;18.90;100.00;98203.78;1672277;85;28577;-84
2022/06/27 02:01:54;;;;;;;6.50;4.10;;;;;;;18.84;100.00;98203.11;1676053;83;28165;-84
2022/06/27 02:04:23;;;;;;;5.95;4.08;;;;;;;18.79;100.00;98202.28;1672882;85;28141;-83
2022/06/27 02:06:52;;;;;;;5.62;3.70;;;;;;;18.84;100.00;98203.11;1672017;85;28156;-83
2022/06/27 02:09:18;;;;;;;7.28;4.00;;;;;;;18.94;100.00;98202.45;1667492;83;28071;-84
2022/06/27 02:11:48;;;;;;;4.78;3.80;;;;;;;19.10;100.00;98202.45;1669493;83;28091;-87
2022/06/27 02:14:14;;;;;;;7.00;3.65;;;;;;;19.10;100.00;98206.42;1669995;85;28101;-85
2022/06/27 02:16:44;;;;;;;4.45;3.95;;;;;;;19.04;100.00;98205.27;1673628;85;28040;-84
2022/06/27 02:19:13;;;;;;;4.50;3.67;;;;;;;19.08;100.00;98205.78;1669965;85;28102;-84
2022/06/27 02:21:41;;;;;;;4.47;3.83;;;;;;;19.22;100.00;98207.75;1672679;85;28085;-84
2022/06/27 02:24:07;;;;;;;7.03;3.80;;;;;;;19.38;100.00;98207.73;1675753;83;28079;-87
2022/06/27 02:26:34;;;;;;;4.45;3.65;;;;;;;19.50;100.00;98202.94;1672991;85;28099;-83
2022/06/27 02:29:02;;;;;;;6.87;4.20;;;;;;;19.60;100.00;98207.06;1675633;85;28130;-82
2022/06/27 02:31:33;;;;;;;4.55;3.75;;;;;;;19.63;100.00;98205.91;1671399;85;28051;-82
2022/06/27 02:34:00;;;;;;;5.87;3.95;;;;;;;19.62;100.00;98207.73;1677210;84;28075;-83
2022/06/27 02:36:38;;;;;;;4.47;4.03;;;;;;;19.58;100.00;98205.59;1667924;85;28055;-83
2022/06/27 02:39:07;;;;;;;4.47;4.05;;;;;;;19.54;100.00;98207.73;1670257;85;28086;-83
2022/06/27 02:41:36;;;;;;;4.10;3.70;;;;;;;19.53;100.00;98206.08;1671542;85;28122;-83
2022/06/27 02:44:11;;;;;;;4.47;3.98;;;;;;;19.51;100.00;98205.94;1652118;85;28221;-84
2022/06/27 02:46:39;;;;;;;4.25;3.60;;;;;;;19.47;100.00;98205.45;1602806;88;28096;-85
2022/06/27 02:49:06;;;;;;;7.67;3.95;;;;;;;19.47;100.00;98212.09;1672886;84;28093;-84
2022/06/27 02:52:04;;;;;;;5.72;3.98;;;;;;;19.44;100.00;98214.20;1683727;83;28118;-84
2022/06/27 02:54:38;;;;;;;5.17;4.00;;;;;;;19.31;100.00;98217.36;1678824;83;28153;-84
2022/06/27 02:57:17;;;;;;;3.90;3.50;;;;;;;19.20;100.00;98213.74;1687052;84;28087;-85
2022/06/27 02:59:46;;;;;;;6.08;4.00;;;;;;;19.29;100.00;98210.08;1681281;84;28078;-84
2022/06/27 03:02:15;;;;;;;5.15;3.87;;;;;;;19.38;100.00;98206.91;1685264;83;28102;-89
2022/06/27 03:04:41;;;;;;;5.80;3.83;;;;;;;19.42;100.00;98208.25;1678408;84;28237;-88
2022/06/27 03:07:10;;;;;;;5.17;3.67;;;;;;;19.45;100.00;98210.58;1679403;83;28082;-88
2022/06/27 03:09:36;;;;;;;4.62;3.80;;;;;;;19.47;100.00;98212.09;1673335;84;28128;-88
2022/06/27 03:12:03;;;;;;;5.65;4.28;;;;;;;19.49;100.00;98210.57;1650340;85;28110;-84
2022/06/27 03:14:29;;;;;;;5.17;4.30;;;;;;;19.49;100.00;98218.03;1672250;85;28249;-84
2022/06/27 03:16:55;;;;;;;6.40;3.70;;;;;;;19.52;100.00;98218.22;1668989;85;28048;-85
2022/06/27 03:19:21;;;;;;;6.35;4.47;;;;;;;19.55;100.00;98219.19;1664617;85;28113;-85
2022/06/27 03:21:49;;;;;;;4.97;3.90;;;;;;;19.58;100.00;98221.00;1671669;85;28075;-84
2022/06/27 03:24:15;;;;;;;5.70;3.50;;;;;;;19.61;100.00;98225.98;1674334;84;28087;-84
2022/06/27 03:26:41;;;;;;;4.47;3.83;;;;;;;19.64;100.00;98232.27;1702174;84;28098;-85
2022/06/27 03:29:09;;;;;;;5.70;3.45;;;;;;;19.51;100.00;98231.98;1702524;83;28097;-85
2022/06/27 03:31:38;;;;;;;4.83;3.50;;;;;;;19.38;100.00;98234.27;1702788;84;28098;-84
2022/06/27 03:34:04;;;;;;;5.67;3.70;;;;;;;19.30;100.00;98240.93;1702513;84;50368;-84
2022/06/27 03:36:30;;;;;;;4.47;3.85;;;;;;;19.34;100.00;98242.74;1700874;82;28246;-85
2022/06/27 03:38:57;;;;;;;4.12;3.30;;;;;;;19.55;100.00;98234.63;1700595;83;28051;-88
2022/06/27 03:41:23;;;;;;;5.40;3.70;;;;;;;19.81;100.00;98231.73;1701769;84;28138;-84
2022/06/27 03:43:49;;;;;;;4.47;3.60;;;;;;;20.05;100.00;98233.00;1701110;83;28172;-85
2022/06/27 03:46:16;;;;;;;4.45;3.72;;;;;;;20.32;100.00;98228.27;1701831;84;28092;-84
2022/06/27 03:51:27;;;;;;;6.72;4.05;;;;;;;20.77;100.00;98228.84;1702572;83;28044;-84
2022/06/27 03:53:53;;;;;;;4.72;3.77;;;;;;;20.95;100.00;98233.36;1701978;84;28110;-84
2022/06/27 03:56:19;;;;;;;4.55;3.80;;;;;;;21.13;100.00;98232.56;1702133;83;28016;-84
2022/06/27 03:58:47;;;;;;;4.90;3.62;;;;;;;21.34;100.00;98232.42;1701842;84;28085;-84
2022/06/27 04:01:13;;;;;;;6.97;3.80;;;;;;;21.52;100.00;98227.09;1700423;84;28156;-89
2022/06/27 04:03:42;;;;;;;5.17;3.90;;;;;;;21.64;100.00;98227.48;1701869;82;28090;-89
2022/06/27 04:06:08;;;;;;;5.45;4.12;;;;;;;21.85;100.00;98240.08;1701299;83;28065;-89
2022/06/27 04:08:34;;;;;;;5.33;3.58;;;;;;;22.03;100.00;98239.25;1701932;83;28108;-89
2022/06/27 04:11:00;;;;;;;4.58;3.45;;;;;;;21.98;100.00;98235.78;1702599;83;28204;-89
2022/06/27 04:13:27;;;;;;;5.15;3.77;;;;;;;22.07;100.00;98244.03;1702393;83;28071;-85
2022/06/27 04:15:53;;;;;;;10.50;4.40;;;;;;;22.33;100.00;98242.71;1702383;82;28101;-89
2022/06/27 04:18:19;;;;;;;4.90;4.00;;;;;;;22.60;100.00;98246.52;1702106;83;28121;-89
2022/06/27 04:20:45;;;;;;;4.67;3.80;;;;;;;22.83;100.00;98242.72;1701252;83;28103;-89
2022/06/27 04:23:11;;;;;;;5.75;3.42;;;;;;;23.00;100.00;98246.48;1701838;83;28034;-89
2022/06/27 04:25:37;;;;;;;3.80;3.45;;;;;;;22.99;100.00;98244.82;1683335;84;28100;-85
2022/06/27 04:28:04;;;;;;;4.37;3.35;;;;;;;22.84;100.00;98243.55;1675369;84;28091;-85
2022/06/27 04:30:32;;;;;;;3.83;3.42;;;;;;;22.69;100.00;98245.41;1619617;85;28104;-84
2022/06/27 04:33:00;;;;;;;5.40;4.10;;;;;;;22.66;100.00;98251.11;1642790;86;28036;-84
2022/06/27 04:35:26;;;;;;;4.17;3.47;;;;;;;22.68;100.00;98254.42;1677243;83;28166;-89
2022/06/27 04:37:55;;;;;;;3.90;3.50;;;;;;;22.66;100.00;98249.27;1677542;83;28082;-85
2022/06/27 04:40:22;;;;;;;4.25;3.60;;;;;;;22.66;100.00;98256.44;1672788;84;28078;-89
2022/06/27 04:42:49;;;;;;;6.90;3.98;;;;;;;22.64;100.00;98252.62;1675938;84;28094;-88
2022/06/27 04:45:16;;;;;;;4.10;3.33;;;;;;;22.65;100.00;98254.78;1676930;84;28099;-88
2022/06/27 04:47:46;;;;;;;5.12;3.15;;;;;;;22.64;100.00;98256.63;1676789;84;28068;-86
2022/06/27 04:50:15;;;;;;;5.17;4.08;;;;;;;22.63;100.00;98259.50;1678847;84;28215;-84
2022/06/27 04:52:42;;;;;;;5.80;3.45;;;;;;;22.66;100.00;98260.45;1682706;83;28109;-84
2022/06/27 04:55:10;;;;;;;7.22;3.58;;;;;;;22.78;100.00;98257.64;1677212;84;28179;-84
2022/06/27 04:57:39;;;;;;;5.65;3.55;;;;;;;23.04;100.00;98258.42;1677629;84;28082;-85
2022/06/27 05:00:08;;;;;;;5.65;3.85;;;;;;;23.24;100.00;98254.09;1675970;84;28083;-84
2022/06/27 05:02:35;;;;;;;4.42;3.37;;;;;;;23.18;100.00;98255.71;1678754;83;28062;-84
2022/06/27 05:05:03;;;;;;;7.22;3.95;;;;;;;23.22;100.00;98257.48;1680916;83;28123;-84
2022/06/27 05:07:30;;;;;;;6.50;3.62;;;;;;;23.11;100.00;98260.15;1678050;83;28094;-84
2022/06/27 05:09:57;;;;;;;4.87;3.60;;;;;;;23.01;100.00;98260.15;1680326;84;28086;-85
2022/06/27 05:12:24;;;;;;;5.53;3.50;;;;;;;22.91;100.00;98263.94;1674254;84;28192;-85
2022/06/27 05:14:51;;;;;;;5.08;3.77;;;;;;;22.84;100.00;98264.39;1677105;84;28099;-84
2022/06/27 05:17:18;;;;;;;5.35;4.00;;;;;;;22.74;100.00;98265.21;1679897;84;28007;-84
2022/06/27 05:19:44;;;;;;;6.28;4.35;;;;;;;22.65;100.00;98265.45;1682394;84;28141;-85
2022/06/27 05:22:11;;;;;;;8.35;4.10;;;;;;;22.62;100.00;98266.67;1680020;83;28059;-84
2022/06/27 05:24:37;;;;;;;5.45;4.33;;;;;;;22.65;100.00;98271.63;1679584;84;28067;-84
2022/06/27 05:27:04;;;;;;;5.08;3.80;;;;;;;22.67;100.00;98268.27;1677545;84;28083;-85
2022/06/27 05:29:31;;;;;;;4.92;3.80;;;;;;;22.75;100.00;98268.67;1678249;84;27999;-85
2022/06/27 05:31:58;;;;;;;7.67;4.37;;;;;;;23.00;100.00;98270.00;1676429;84;28074;-84
2022/06/27 05:34:28;;;;;;;6.85;4.20;;;;;;;23.16;100.00;98272.92;1664403;85;28209;-84
2022/06/27 05:36:52;;;;;;;6.50;3.98;;;;;;;23.24;100.00;98271.44;1603421;88;28208;-83
2022/06/27 05:39:18;;;;;;;3.83;3.52;;;;;;;23.33;100.00;98274.33;1670930;85;28099;-89
2022/06/27 05:41:46;;;;;;;3.92;3.60;;;;;;;23.46;100.00;98273.63;1680109;83;28050;-84
2022/06/27 05:44:13;;;;;;;4.47;4.08;;;;;;;23.49;100.00;98273.26;1680653;84;28099;-89
2022/06/27 05:46:42;;;;;;;4.05;3.65;;;;;;;23.57;100.00;98274.44;1680857;83;28044;-82
2022/06/27 05:49:11;;;;;;;4.10;3.70;;;;;;;23.71;100.00;98274.88;1681576;84;28061;-83
2022/06/27 05:51:37;;;;;;;6.17;3.90;;;;;;;23.83;100.00;98273.83;1674207;83;28120;-86
2022/06/27 05:54:05;;;;;;;5.03;3.55;;;;;;;23.98;100.00;98271.87;1678709;83;28094;-85
2022/06/27 05:56:33;;;;;;;4.75;3.87;;;;;;;24.07;100.00;98273.36;1684910;83;28044;-85
2022/06/27 05:58:59;;;;;;;4.35;3.95;;;;;;;24.17;100.00;98271.16;1682622;83;28095;-84
2022/06/27 06:01:25;;;;;;;4.22;3.40;;;;;;;24.29;100.00;98274.96;1675992;84;28104;-84
2022/06/27 06:03:53;;;;;;;5.25;3.60;;;;;;;24.34;100.00;98271.17;1678431;84;28093;-85
2022/06/27 06:06:19;;;;;;;4.67;3.62;;;;;;;24.51;100.00;98268.99;1667569;83;28079;-84
2022/06/27 06:08:46;;;;;;;5.12;3.52;;;;;;;24.66;100.00;98276.35;1669341;85;28164;-85
2022/06/27 06:11:18;;;;;;;4.45;3.50;;;;;;;24.77;100.00;98277.63;1674842;85;28015;-84
2022/06/27 06:13:45;;;;;;;4.28;3.60;;;;;;;24.85;100.00;98275.61;1675856;85;28083;-85
2022/06/27 06:16:12;;;;;;;3.87;3.55;;;;;;;24.88;100.00;98279.23;1674612;84;28091;-84
2022/06/27 06:18:38;;;;;;;8.03;3.60;;;;;;;24.88;100.00;98278.41;1671071;85;28174;-84
2022/06/27 06:21:04;;;;;;;4.00;3.37;;;;;;;24.88;100.00;98277.08;1662567;85;28120;-89
2022/06/27 06:23:36;;;;;;;4.37;3.47;;;;;;;24.94;100.00;98285.13;1669012;85;28035;-84
2022/06/27 06:26:02;;;;;;;4.72;3.17;;;;;;;24.95;100.00;98287.30;1675495;82;28099;-84
2022/06/27 06:28:32;;;;;;;5.00;3.15;;;;;;;24.98;100.00;98290.92;1684559;83;28033;-84
2022/06/27 06:30:57;;;;;;;5.55;3.65;;;;;;;25.03;100.00;98293.83;1683919;83;28076;-84
2022/06/27 06:33:23;;;;;;;4.95;3.30;;;;;;;25.12;100.00;98292.59;1682843;84;28135;-85
2022/06/27 06:35:49;;;;;;;4.37;3.20;;;;;;;25.19;100.00;98294.78;1681461;83;28092;-85
2022/06/27 06:38:16;;;;;;;4.25;3.33;;;;;;;25.21;100.00;98288.69;1684899;84;28108;-85
2022/06/27 06:40:42;;;;;;;4.30;3.30;;;;;;;25.25;100.00;98291.30;1684899;84;28209;-85
2022/06/27 06:43:08;;;;;;;7.10;4.10;;;;;;;25.33;100.00;98294.28;1684888;83;28061;-85
2022/06/27 06:45:34;;;;;;;6.53;4.17;;;;;;;25.34;100.00;98295.93;1682418;83;28475;-84
2022/06/27 06:48:02;;;;;;;7.87;3.67;;;;;;;25.31;100.00;98294.47;1684178;84;28049;-85
2022/06/27 06:50:28;;;;;;;4.37;3.30;;;;;;;25.35;100.00;98287.70;1681037;83;28163;-89
2022/06/27 06:52:54;;;;;;;3.98;3.15;;;;;;;25.43;100.00;98283.98;1682498;83;28081;-84
2022/06/27 06:55:21;;;;;;;3.25;2.83;;;;;;;25.45;100.00;98290.48;1681265;84;28063;-84
2022/06/27 06:57:49;;;;;;;4.87;2.77;;;;;;;25.52;100.00;98288.64;1680836;83;28096;-89
2022/06/27 07:00:16;;;;;;;3.20;2.90;;;;;;;25.58;100.00;98287.34;1685620;84;28107;-85
2022/06/27 07:02:43;;;;;;;4.35;3.10;;;;;;;25.64;100.00;98288.38;1685606;83;28135;-89
2022/06/27 07:05:11;;;;;;;4.12;2.92;;;;;;;25.67;100.00;98282.58;1684941;84;28099;-90
2022/06/27 07:07:41;;;;;;;5.80;3.70;;;;;;;25.76;100.00;98283.50;1686650;83;28089;-84
2022/06/27 07:10:12;;;;;;;6.33;3.35;;;;;;;25.81;100.00;98282.88;1683482;84;28028;-85
2022/06/27 07:12:40;;;;;;;4.97;3.70;;;;;;;25.86;100.00;98273.69;1684850;83;28103;-85
2022/06/27 07:15:09;;;;;;;4.35;3.83;;;;;;;25.91;100.00;98277.94;1685368;84;28138;-90
2022/06/27 07:17:51;;;;;;;4.65;4.12;;;;;;;25.93;100.00;98273.17;1681108;84;28104;-86
2022/06/27 07:20:19;;;;;;;5.30;3.30;;;;;;;25.96;100.00;98274.62;1654805;86;28158;-85
2022/06/27 07:22:47;;;;;;;6.15;3.35;;;;;;;26.07;100.00;98268.11;1651053;85;28102;-85
2022/06/27 07:25:13;;;;;;;3.85;3.47;;;;;;;26.15;100.00;98270.55;1653216;84;28161;-89
2022/06/27 07:27:43;;;;;;;4.60;3.60;;;;;;;26.21;100.00;98268.38;1685273;84;28078;-89
2022/06/27 07:30:11;;;;;;;5.40;3.35;;;;;;;26.31;100.00;98268.47;1645290;85;28080;-90
2022/06/27 07:32:43;;;;;;;3.95;3.55;;;;;;;26.40;100.00;98273.42;1668957;84;28112;-86
2022/06/27 07:35:11;;;;;;;5.58;3.67;;;;;;;26.51;100.00;98280.78;1669689;85;28049;-89
2022/06/27 07:37:48;;;;;;;6.72;3.65;;;;;;;26.60;100.00;98274.16;1668569;84;28084;-85
2022/06/27 07:40:15;;;;;;;5.08;3.47;;;;;;;26.67;100.00;98267.94;1666664;84;28179;-85
2022/06/27 07:42:42;;;;;;;7.33;3.58;;;;;;;26.78;100.00;98275.32;1667703;84;28005;-84
2022/06/27 07:45:14;;;;;;;3.80;3.40;;;;;;;26.91;100.00;98278.78;1703054;83;28064;-85
2022/06/27 07:47:42;;;;;;;6.55;3.90;;;;;;;26.98;100.00;98280.92;1702713;82;28033;-84
2022/06/27 07:50:09;;;;;;;3.87;3.00;;;;;;;27.04;100.00;98281.41;1702457;83;28168;-86
2022/06/27 07:55:24;;;;;;;3.95;2.92;;;;;;;27.16;99.42;98279.37;1675539;84;28095;-84
2022/06/27 07:57:55;;;;;;;5.83;3.08;;;;;;;27.27;98.90;98277.34;1681752;84;28213;-85
2022/06/27 08:00:20;;;;;;;4.92;3.10;;;;;;;27.41;98.41;98278.36;1684183;84;28257;-85
2022/06/27 08:02:46;;;;;;;3.20;2.90;;;;;;;27.48;97.47;98275.62;1701035;83;28149;-85
2022/06/27 08:05:12;;;;;;;4.10;3.20;;;;;;;27.54;96.81;98279.34;1702106;83;28109;-84
2022/06/27 08:07:40;;;;;;;3.60;2.92;;;;;;;27.60;96.31;98275.27;1697716;82;28079;-86
2022/06/27 08:10:07;;;;;;;4.28;2.87;;;;;;;27.69;95.98;98280.66;1702405;82;28080;-85
2022/06/27 08:12:33;;;;;;;4.92;2.98;;;;;;;27.78;95.41;98275.81;1702489;83;28202;-86
2022/06/27 08:15:01;;;;;;;2.90;2.70;;;;;;;27.86;94.30;98280.41;1702072;84;28021;-85
2022/06/27 08:17:28;;;;;;;3.02;2.37;;;;;;;27.93;93.40;98278.97;1701803;84;28091;-85
2022/06/27 08:19:54;;;;;;;4.20;2.65;;;;;;;28.02;92.52;98282.22;1699771;83;28127;-85
2022/06/27 08:22:24;;;;;;;3.40;2.70;;;;;;;28.07;91.41;98271.61;1703841;83;28030;-84
2022/06/27 08:24:48;;;;;;;3.17;2.45;;;;;;;28.10;90.25;98277.87;1701837;83;28065;-89
2022/06/27 08:27:15;;;;;;;4.47;2.75;;;;;;;28.24;89.82;98279.44;1675117;83;28149;-86
2022/06/27 08:29:41;;;;;;;4.45;2.35;;;;;;;28.30;88.58;98275.84;1683517;83;28084;-84
2022/06/27 08:32:08;;;;;;;4.83;2.70;;;;;;;28.35;87.36;98276.00;1685530;83;28012;-84
2022/06/27 08:34:36;;;;;;;3.72;2.37;;;;;;;28.44;86.76;98277.33;1681335;83;28035;-84
2022/06/27 08:37:02;;;;;;;2.47;2.27;;;;;;;28.54;86.12;98278.97;1643161;85;28013;-85
2022/06/27 08:39:29;;;;;;;4.20;3.00;;;;;;;28.62;84.69;98280.03;1643531;85;28060;-84
2022/06/27 08:41:56;;;;;;;5.60;2.77;;;;;;;28.75;84.50;98280.95;1607726;87;28124;-84
2022/06/27 08:44:24;;;;;;;2.58;2.37;;;;;;;28.86;83.80;98282.88;1648962;85;28149;-89
2022/06/27 08:46:54;;;;;;;2.87;2.40;;;;;;;28.95;83.18;98282.33;1637505;86;28179;-89
2022/06/27 08:49:20;;;;;;;3.65;2.37;;;;;;;29.02;81.91;98280.89;1672868;83;28135;-86
2022/06/27 08:51:46;;;;;;;3.22;2.00;;;;;;;29.07;80.74;98283.72;1682756;83;28180;-85
2022/06/27 08:54:12;;;;;;;3.80;2.47;;;;;;;29.11;79.81;98284.38;1674059;83;28091;-86
2022/06/27 08:56:39;;;;;;;2.40;2.20;;;;;;;29.20;79.27;98281.34;1670217;83;28026;-85
2022/06/27 08:59:08;;;;;;;2.80;2.20;;;;;;;29.32;78.98;98278.19;1678568;83;28181;-85
2022/06/27 09:01:39;;;;;;;3.58;2.47;;;;;;;29.39;77.94;98273.52;1677072;83;28085;-86
2022/06/27 09:04:10;;;;;;;4.33;2.00;;;;;;;29.52;77.36;98277.34;1680718;84;28078;-86
2022/06/27 09:06:46;;;;;;;3.15;2.25;;;;;;;29.57;76.42;98284.77;1677070;84;28071;-85
2022/06/27 09:09:15;;;;;;;2.45;2.17;;;;;;;29.61;75.37;98285.94;1679780;83;28008;-85
2022/06/27 09:11:43;;;;;;;2.87;2.33;;;;;;;29.62;73.96;98279.49;1681986;83;28105;-85
2022/06/27 09:14:36;;;;;;;4.03;2.20;;;;;;;29.68;73.05;98278.02;1681306;84;28169;-84
2022/06/27 09:17:09;;;;;;;3.50;2.20;;;;;;;29.71;71.98;98279.44;1678366;84;28053;-84
2022/06/27 09:19:57;;;;;;;2.30;2.00;;;;;;;29.71;70.62;98277.56;1679647;83;28079;-85
2022/06/27 09:22:26;;;;;;;2.98;2.10;;;;;;;29.72;69.59;98281.08;1625391;86;28153;-84
2022/06/27 09:25:09;;;;;;;3.12;1.80;;;;;;;29.76;68.37;98275.51;1636432;86;28102;-85
2022/06/27 09:27:50;;;;;;;2.95;2.15;;;;;;;29.82;67.60;98275.92;1693204;83;28078;-85
2022/06/27 09:30:21;;;;;;;2.87;1.70;;;;;;;29.92;66.82;98281.06;1702960;82;28080;-84
2022/06/27 09:32:51;;;;;;;3.77;1.92;;;;;;;30.12;65.61;98277.17;1702636;83;28070;-85
2022/06/27 09:35:25;;;;;;;2.62;2.00;;;;;;;30.30;64.99;98275.16;1702853;83;28506;-85
2022/06/27 09:37:55;;;;;;;2.10;1.82;;;;;;;30.45;64.02;98275.19;1703782;82;28090;-84
2022/06/27 09:40:26;;;;;;;2.05;1.95;;;;;;;30.47;62.75;98277.13;1701870;83;28201;-85
2022/06/27 09:42:55;;;;;;;;;;;;;;;30.60;61.90;98270.95;1708763;83;28038;-84
2022/06/27 09:45:26;;;;;;;2.67;1.80;;;;;;;30.68;61.46;98273.81;1701504;83;24798;-84
2022/06/27 09:48:01;;;;;;;6.72;2.17;;;;;;;30.60;60.14;98274.20;1701076;84;28166;-85
2022/06/27 09:50:31;;;;;;;3.20;2.00;;;;;;;30.52;59.12;98266.46;1674491;83;28204;-85
2022/06/27 09:52:59;;;;;;;2.37;1.77;;;;;;;30.51;58.28;98264.81;1698213;84;28153;-84
2022/06/27 09:55:26;;;;;;;2.77;1.85;;;;;;;30.46;57.04;98265.50;1702156;83;28082;-85
2022/06/27 09:57:56;;;;;;;2.90;2.52;;;;;;;30.48;56.61;98259.91;1703150;82;28086;-84
2022/06/27 10:00:24;;;;;;;2.50;1.98;;;;;;;30.53;56.48;98263.53;1702113;83;28352;-85
2022/06/27 10:02:51;;;;;;;2.58;2.08;;;;;;;30.68;56.34;98264.36;1700002;84;28072;-85
2022/06/27 10:05:19;;;;;;;3.42;2.12;;;;;;;30.89;56.49;98260.98;1702362;83;28062;-84
2022/06/27 10:07:56;;;;;;;2.37;2.10;;;;;;;31.06;55.83;98265.12;1703029;84;28077;-85
2022/06/27 10:10:22;;;;;;;5.83;1.80;;;;;;;31.06;55.37;98257.00;1701223;82;28054;-84
2022/06/27 10:13:01;;;;;;;2.95;2.10;;;;;;;31.05;54.77;98256.71;1701896;82;28144;-84
2022/06/27 10:15:31;;;;;;;2.35;2.15;;;;;;;31.19;54.87;98254.02;1702226;83;28062;-85
2022/06/27 10:18:00;;;;;;;2.10;1.95;;;;;;;31.25;54.40;98253.57;1702894;84;28078;-84
2022/06/27 10:20:35;;;;;;;2.02;1.80;;;;;;;31.16;53.60;98255.83;1703501;82;28085;-84
2022/06/27 10:23:19;;;;;;;3.52;2.20;;;;;;;31.06;52.72;98242.14;1702986;82;28117;-84
2022/06/27 10:25:46;;;;;;;3.58;2.02;;;;;;;31.13;52.52;98250.40;1702281;84;28157;-84
2022/06/27 10:28:15;;;;;;;2.98;2.10;;;;;;;31.27;52.24;98248.72;1685007;84;28094;-84
2022/06/27 10:30:46;;;;;;;2.33;1.90;;;;;;;31.43;51.89;98247.91;1685911;84;28061;-84
2022/06/27 10:33:25;;;;;;;3.35;1.95;;;;;;;31.47;51.30;98241.79;1645224;85;28018;-84
2022/06/27 10:36:34;;;;;;;2.25;2.05;;;;;;;31.45;51.02;98243.91;1686135;84;28097;-84
2022/06/27 10:38:41;;;;;;;2.65;1.85;;;;;;;31.52;50.73;98243.22;1676453;83;28083;-84
2022/06/27 10:41:19;;;;;;;2.60;2.12;;;;;;;31.45;50.18;98238.50;1685200;84;28112;-84
2022/06/27 10:43:54;;;;;;;4.47;1.87;;;;;;;31.60;50.32;98237.12;1641865;87;28165;-84
2022/06/27 10:46:24;;;;;;;2.77;2.27;;;;;;;31.51;49.24;98231.28;1643137;85;28054;-84
2022/06/27 10:48:52;;;;;;;5.40;2.20;;;;;;;31.46;48.77;98231.20;1684971;84;28155;-85
2022/06/27 10:51:22;;;;;;;3.50;2.25;;;;;;;31.59;49.14;98233.59;1646052;86;28193;-89
2022/06/27 10:54:09;;;;;;;3.33;2.02;;;;;;;31.76;49.32;98222.76;1651132;86;28166;-90
2022/06/27 10:56:48;;;;;;;4.17;2.10;;;;;;;31.94;49.52;98225.20;1648629;86;28137;-89
2022/06/27 10:59:18;;;;;;;3.15;2.05;;;;;;;32.08;49.44;98232.45;1652193;86;28105;-86
2022/06/27 11:01:54;;;;;;;1.98;1.80;;;;;;;32.19;48.95;98220.15;1685018;84;28122;-85
2022/06/27 11:04:30;;;;;;;3.12;2.22;;;;;;;32.25;48.17;98221.86;1643580;87;28056;-85
2022/06/27 11:07:03;;;;;;;3.00;1.92;;;;;;;32.27;47.74;98215.66;1685419;83;28032;-85
2022/06/27 11:09:37;;;;;;;2.35;2.02;;;;;;;32.30;47.28;98213.79;1643666;86;28002;-89
2022/06/27 11:12:06;;;;;;;3.52;2.22;;;;;;;32.23;46.67;98212.36;1643220;87;28129;-89
2022/06/27 11:14:54;;;;;;;4.97;2.05;;;;;;;32.25;46.59;98198.02;1686360;84;28157;-84
2022/06/27 11:17:41;;;;;;;2.62;2.20;;;;;;;32.42;46.63;98201.48;1685318;83;28075;-84
2022/06/27 11:20:25;;;;;;;3.20;2.10;;;;;;;32.56;46.07;98192.44;1683900;84;28067;-84
2022/06/27 11:23:00;;;;;;;2.62;2.10;;;;;;;32.65;45.89;98201.24;1642615;86;27995;-84
2022/06/27 11:25:28;;;;;;;4.22;2.30;;;;;;;32.68;45.22;98194.48;1685107;84;28067;-86
2022/06/27 11:27:58;;;;;;;3.08;2.17;;;;;;;32.77;44.88;98191.61;1644797;84;28090;-89
2022/06/27 11:33:19;;;;;;;2.00;1.80;;;;;;;32.67;44.08;98185.55;1629815;86;28074;-85
2022/06/27 11:35:47;;;;;;;3.12;2.25;;;;;;;32.49;43.49;98185.86;1636370;85;28132;-85
2022/06/27 11:38:25;;;;;;;2.55;1.77;;;;;;;32.33;43.24;98183.51;1635012;85;28019;-88
2022/06/27 11:41:09;;;;;;;2.67;2.25;;;;;;;32.39;43.40;98178.97;1633744;87;28100;-84
2022/06/27 11:43:51;;;;;;;2.10;1.90;;;;;;;32.41;43.57;98176.80;1635020;85;28124;-84
2022/06/27 11:46:24;;;;;;;2.20;2.00;;;;;;;32.28;43.48;98188.05;1634624;85;28090;-86